KCEW

Details ICAO KCEW (CEW)
Name Bob Sikes
Region United States
Timezone America/Chicago (UTC-6.0)
Plans Departing 4
Arriving 4
Stats Elevation 213 ft / 65 m (AMSL)
Location 30.778831° -86.522114°
Runways 1
Magnetic Variation 3.301° W
Sunrise 2017-12-14 12:37:11 UTC / 2017-12-14 06:37:11 Local
Sunset 2017-12-14 22:47:22 UTC / 2017-12-14 16:47:22 Local
Advertisement - Login to hide

Runways

ID Width Length Bearing (true) Bearing (mag) Surface Threshold Offset Overrun Length
17 150 ft / 46 m 8,031 ft / 2,448 m 171.04° 174.34° Asphalt 0 ft / 0 m 310 ft / 94 m
35 150 ft / 46 m 8,031 ft / 2,448 m 351.04° 354.34° Asphalt 0 ft / 0 m 310 ft / 94 m

Approach Navaids

Runway Type Ident Frequency Range Bearing (true) Bearing (mag) Slope Elevation
17 Localiser ICEW 111.90 MHz 18 nm / 33 km 171.03° 174.34° - 214 ft / 65 m (AMSL)
17 Glidescope ICEW 111.90 MHz 10 nm / 19 km 171.04° 174.34° 3.00° 191 ft / 58 m (AMSL)

Map

Weather


0- 5 10 15 20 25 30 35+ Temperature / ° C

Clouds and Precipitation
Forecast for 2017-12-14 18:00 UTC. Updated 11 minutes ago

Ground ~20,000 ft ~40,000 ft Winds

METAR

KCEW 141653Z AUTO 22004KT 10SM CLR 15/03 A3003 RMK AO2 SLP166 T01500033

TAF

Not found

Frequencies

Recorded 119.27 MHz ASOS
Approach 124.05 MHz EGLIN APP/DEP
Unicom 122.95 MHz CTAF/UNICOM
Warning: Do not use this data for real-world aviation or navigation. No guarantee of current accuracy is given.